Time,TemperatureF,DewpointF,PressureIn,WindDirection,WindDirectionDegrees,WindSpeedMPH,WindSpeedGustMPH,Humidity,HourlyPrecipIn,Conditions,Clouds,dailyrainin,SoftwareType,DateUTC
2013-03-20 02:02:00,13.0,9.0,30.29,NNW,339,1.0,4.0,82,0.00,,,0.00,,2013-03-20 08:02:00,
2013-03-20 02:12:00,13.0,9.0,30.29,NNW,339,1.0,4.0,82,0.00,,,0.00,,2013-03-20 08:12:00,
2013-03-20 02:22:00,13.0,9.0,30.28,NNW,339,1.0,4.0,83,0.00,,,0.00,,2013-03-20 08:22:00,
2013-03-20 02:31:00,13.0,9.0,30.27,NNW,339,1.0,2.0,82,0.00,,,0.00,,2013-03-20 08:31:00,
2013-03-20 02:32:00,13.0,9.0,30.27,NNW,339,1.0,3.0,83,0.00,,,0.00,,2013-03-20 08:32:00,
2013-03-20 02:42:00,13.0,9.0,30.27,NNW,339,1.0,3.0,83,0.00,,,0.00,,2013-03-20 08:42:00,
2013-03-20 02:52:00,13.0,9.0,30.27,NNW,339,1.0,2.0,82,0.00,,,0.00,,2013-03-20 08:52:00,
2013-03-20 03:02:00,13.0,9.0,30.27,NNW,339,1.0,2.0,82,0.00,,,0.00,,2013-03-20 09:02:00,
2013-03-20 03:12:00,13.0,9.0,30.27,NNW,339,1.0,2.0,82,0.00,,,0.00,,2013-03-20 09:12:00,
2013-03-20 03:22:00,13.0,9.0,30.27,NNW,339,1.0,2.0,82,0.00,,,0.00,,2013-03-20 09:22:00,
2013-03-20 05:52:00,10.0,6.0,30.19,NNW,339,0.0,0.0,84,0.00,,,0.00,,2013-03-20 11:52:00,
2013-03-20 06:02:00,10.0,6.0,30.18,NNW,339,0.0,0.0,83,0.00,,,0.00,,2013-03-20 12:02:00,
2013-03-20 06:12:00,10.0,6.0,30.18,NNW,339,0.0,0.0,83,0.00,,,0.00,,2013-03-20 12:12:00,
2013-03-20 06:22:00,10.0,6.0,30.18,NNW,339,0.0,0.0,83,0.00,,,0.00,,2013-03-20 12:22:00,
2013-03-20 06:32:00,10.0,6.0,30.17,NNW,339,1.0,2.0,82,0.00,,,0.00,,2013-03-20 12:32:00,
2013-03-20 06:42:00,10.0,6.0,30.17,NNW,339,1.0,2.0,82,0.00,,,0.00,,2013-03-20 12:42:00,
2013-03-20 06:52:00,10.0,6.0,30.17,NNW,339,1.0,2.0,82,0.00,,,0.00,,2013-03-20 12:52:00,
2013-03-20 07:03:00,10.0,6.0,30.17,NNW,339,1.0,2.0,82,0.00,,,0.00,,2013-03-20 13:03:00,
2013-03-20 07:12:00,10.0,6.0,30.17,NNW,339,1.0,2.0,82,0.00,,,0.00,,2013-03-20 13:12:00,
2013-03-20 09:13:00,18.0,13.0,30.07,NNE,20,3.0,5.0,81,0.00,,,0.00,,2013-03-20 15:13:00,
2013-03-20 09:22:00,18.0,13.0,30.07,NNE,20,3.0,5.0,81,0.00,,,0.00,,2013-03-20 15:22:00,
2013-03-20 09:33:00,19.0,14.0,30.06,NNE,22,2.0,6.0,79,0.00,,,0.00,,2013-03-20 15:33:00,
2013-03-20 09:43:00,19.0,14.0,30.06,NNE,22,2.0,6.0,79,0.00,,,0.00,,2013-03-20 15:43:00,
2013-03-20 09:53:00,21.0,15.0,30.06,NNE,22,1.0,4.0,78,0.00,,,0.00,,2013-03-20 15:53:00,
2013-03-20 10:03:00,23.0,17.0,30.05,NNE,22,1.0,4.0,76,0.00,,,0.00,,2013-03-20 16:03:00,
2013-03-20 10:12:00,23.0,17.0,30.05,NNE,22,1.0,4.0,76,0.00,,,0.00,,2013-03-20 16:12:00,
2013-03-20 10:23:00,23.0,17.0,30.05,NNE,22,1.0,4.0,76,0.00,,,0.00,,2013-03-20 16:23:00,
2013-03-20 10:32:00,23.0,17.0,30.05,NNE,22,1.0,4.0,76,0.00,,,0.00,,2013-03-20 16:32:00,
2013-03-20 10:42:00,23.0,17.0,30.05,NNE,22,1.0,4.0,76,0.00,,,0.00,,2013-03-20 16:42:00,
2013-03-20 12:53:00,41.0,21.0,29.95,SE,139,9.0,19.0,44,0.01,,,0.02,,2013-03-20 18:53:00,
2013-03-20 13:02:00,41.0,20.0,29.94,SE,129,6.0,16.0,42,0.01,,,0.02,,2013-03-20 19:02:00,
2013-03-20 13:12:00,41.0,20.0,29.94,SE,129,6.0,16.0,42,0.01,,,0.02,,2013-03-20 19:12:00,
2013-03-20 13:22:00,41.0,18.0,29.93,SE,146,14.0,20.0,39,0.01,,,0.02,,2013-03-20 19:22:00,
2013-03-20 13:32:00,40.0,16.0,29.92,SSE,161,14.0,21.0,38,0.01,,,0.03,,2013-03-20 19:32:00,
2013-03-20 13:42:00,40.0,16.0,29.92,SSE,161,14.0,21.0,38,0.01,,,0.03,,2013-03-20 19:42:00,
2013-03-20 13:53:00,40.0,16.0,29.92,SSE,161,14.0,21.0,38,0.01,,,0.03,,2013-03-20 19:53:00,
2013-03-20 14:02:00,40.0,16.0,29.92,SSE,161,14.0,21.0,38,0.01,,,0.03,,2013-03-20 20:02:00,
2013-03-20 14:13:00,40.0,16.0,29.92,SSE,161,14.0,21.0,38,0.01,,,0.03,,2013-03-20 20:13:00,
2013-03-20 16:33:00,42.0,21.0,29.79,ESE,115,9.0,16.0,42,0.00,,,0.04,,2013-03-20 22:33:00,
2013-03-20 16:43:00,42.0,21.0,29.79,ESE,115,9.0,16.0,42,0.00,,,0.04,,2013-03-20 22:43:00,
2013-03-20 16:53:00,42.0,21.0,29.78,ESE,109,12.0,18.0,43,0.00,,,0.04,,2013-03-20 22:53:00,
2013-03-20 17:02:00,41.0,20.0,29.78,ESE,107,12.0,17.0,43,0.00,,,0.04,,2013-03-20 23:02:00,
2013-03-20 17:12:00,41.0,20.0,29.78,ESE,107,12.0,17.0,43,0.00,,,0.04,,2013-03-20 23:12:00,
2013-03-20 17:22:00,41.0,20.0,29.78,SE,137,7.0,14.0,43,0.00,,,0.04,,2013-03-20 23:22:00,
2013-03-20 17:32:00,41.0,20.0,29.78,SE,137,7.0,14.0,43,0.00,,,0.04,,2013-03-20 23:32:00,
2013-03-20 17:42:00,41.0,20.0,29.78,SE,137,7.0,14.0,43,0.00,,,0.04,,2013-03-20 23:42:00,
2013-03-20 17:53:00,41.0,20.0,29.78,SE,137,7.0,14.0,43,0.00,,,0.04,,2013-03-20 23:53:00,
2013-03-20 18:02:00,41.0,20.0,29.78,SE,137,7.0,14.0,43,0.00,,,0.04,,2013-03-21 00:02:00,
2013-03-20 20:02:00,37.0,15.0,29.75,SE,131,8.0,17.0,40,0.00,,,0.04,,2013-03-21 02:02:00,
2013-03-20 20:12:00,37.0,15.0,29.75,SE,131,8.0,17.0,40,0.00,,,0.04,,2013-03-21 02:12:00,
2013-03-20 20:22:00,37.0,16.0,29.75,ESE,120,6.0,11.0,42,0.00,,,0.04,,2013-03-21 02:22:00,
2013-03-20 20:32:00,36.0,16.0,29.74,ESE,111,6.0,12.0,43,0.00,,,0.04,,2013-03-21 02:32:00,
2013-03-20 20:33:00,36.0,15.0,29.74,ESE,122,6.0,11.0,42,0.00,,,0.04,,2013-03-21 02:33:00,
2013-03-20 20:42:00,36.0,16.0,29.74,ESE,111,6.0,12.0,43,0.00,,,0.04,,2013-03-21 02:42:00,
2013-03-20 20:52:00,36.0,16.0,29.74,ESE,111,6.0,12.0,43,0.00,,,0.04,,2013-03-21 02:52:00,
2013-03-20 21:02:00,36.0,15.0,29.74,ESE,122,6.0,11.0,42,0.00,,,0.04,,2013-03-21 03:02:00,
2013-03-20 21:12:00,36.0,15.0,29.74,ESE,122,6.0,11.0,42,0.00,,,0.04,,2013-03-21 03:12:00,
2013-03-20 21:22:00,36.0,15.0,29.74,ESE,122,6.0,11.0,42,0.00,,,0.04,,2013-03-21 03:22:00,
2013-03-20 23:33:00,32.0,16.0,29.70,ESE,115,8.0,16.0,52,0.00,,,0.04,,2013-03-21 05:33:00,
2013-03-20 23:44:00,32.0,16.0,29.70,ESE,115,8.0,16.0,52,0.00,,,0.04,,2013-03-21 05:44:00,
2013-03-20 23:52:00,32.0,17.0,29.69,ESE,110,7.0,14.0,54,0.00,,,0.04,,2013-03-21 05:52:00,